sensor_id;sensor_type;location;lat;lon;timestamp;pressure;altitude;pressure_sealevel;temperature;humidity
64544;BME280;50936;51.660;5.616;2023-09-18T00:01:51;100267.16;;;29.41;52.64
64544;BME280;50936;51.660;5.616;2023-09-18T00:04:38;100252.19;;;29.42;52.78
64544;BME280;50936;51.660;5.616;2023-09-18T00:07:25;100241.06;;;29.42;52.46
64544;BME280;50936;51.660;5.616;2023-09-18T00:10:13;100222.66;;;29.41;52.32
64544;BME280;50936;51.660;5.616;2023-09-18T00:13:00;100224.38;;;29.42;52.38
64544;BME280;50936;51.660;5.616;2023-09-18T00:15:48;100224.38;;;29.42;52.76
64544;BME280;50936;51.660;5.616;2023-09-18T00:18:36;100215.44;;;29.40;52.46
64544;BME280;50936;51.660;5.616;2023-09-18T00:21:23;100218.81;;;29.42;52.30
64544;BME280;50936;51.660;5.616;2023-09-18T00:24:12;100212.38;;;29.42;52.48
64544;BME280;50936;51.660;5.616;2023-09-18T00:26:59;100212.66;;;29.40;52.84
64544;BME280;50936;51.660;5.616;2023-09-18T00:29:46;100209.88;;;29.40;52.63
64544;BME280;50936;51.660;5.616;2023-09-18T00:32:34;100193.19;;;29.40;52.33
64544;BME280;50936;51.660;5.616;2023-09-18T00:35:21;100185.44;;;29.42;52.77
64544;BME280;50936;51.660;5.616;2023-09-18T00:38:10;100183.72;;;29.41;52.68
64544;BME280;50936;51.660;5.616;2023-09-18T00:40:57;100176.50;;;29.40;52.40
64544;BME280;50936;51.660;5.616;2023-09-18T00:43:44;100182.06;;;29.40;52.30
64544;BME280;50936;51.660;5.616;2023-09-18T00:46:32;100176.50;;;29.40;52.44
64544;BME280;50936;51.660;5.616;2023-09-18T00:49:21;100170.34;;;29.38;52.24
64544;BME280;50936;51.660;5.616;2023-09-18T00:52:11;100159.81;;;29.40;52.58
64544;BME280;50936;51.660;5.616;2023-09-18T00:55:00;100158.09;;;29.39;52.62
64544;BME280;50936;51.660;5.616;2023-09-18T00:57:48;100148.09;;;29.38;52.66
64544;BME280;50936;51.660;5.616;2023-09-18T01:00:36;100146.97;;;29.39;52.39
64544;BME280;50936;51.660;5.616;2023-09-18T01:03:24;100140.81;;;29.37;52.26
64544;BME280;50936;51.660;5.616;2023-09-18T01:06:12;100138.88;;;29.37;52.18
64544;BME280;50936;51.660;5.616;2023-09-18T01:08:59;100141.41;;;29.39;52.23
64544;BME280;50936;51.660;5.616;2023-09-18T01:15:04;100110.09;;;29.44;52.41
64544;BME280;50936;51.660;5.616;2023-09-18T01:17:59;100097.75;;;29.40;52.10
64544;BME280;50936;51.660;5.616;2023-09-18T01:20:46;100099.09;;;29.37;52.20
64544;BME280;50936;51.660;5.616;2023-09-18T01:23:34;100089.69;;;29.38;52.13
64544;BME280;50936;51.660;5.616;2023-09-18T01:26:21;100090.50;;;29.39;52.55
64544;BME280;50936;51.660;5.616;2023-09-18T01:29:08;100089.69;;;29.38;52.21
64544;BME280;50936;51.660;5.616;2023-09-18T01:31:55;100095.25;;;29.38;52.48
64544;BME280;50936;51.660;5.616;2023-09-18T01:34:49;100087.50;;;29.40;52.53
64544;BME280;50936;51.660;5.616;2023-09-18T01:37:39;100078.78;;;29.36;52.29
64544;BME280;50936;51.660;5.616;2023-09-18T01:40:28;100076.84;;;29.37;52.23
64544;BME280;50936;51.660;5.616;2023-09-18T01:43:15;100076.59;;;29.39;52.46
64544;BME280;50936;51.660;5.616;2023-09-18T01:46:03;100083.50;;;29.36;52.29
64544;BME280;50936;51.660;5.616;2023-09-18T01:48:51;100085.69;;;29.34;52.04
64544;BME280;50936;51.660;5.616;2023-09-18T01:51:40;100086.28;;;29.36;52.28
64544;BME280;50936;51.660;5.616;2023-09-18T01:54:27;100084.13;;;29.38;52.42
64544;BME280;50936;51.660;5.616;2023-09-18T01:57:15;100082.41;;;29.37;52.39
64544;BME280;50936;51.660;5.616;2023-09-18T02:00:02;100080.47;;;29.37;51.95
64544;BME280;50936;51.660;5.616;2023-09-18T02:02:58;100080.47;;;29.37;51.92
64544;BME280;50936;51.660;5.616;2023-09-18T02:06:05;100077.44;;;29.39;51.85
64544;BME280;50936;51.660;5.616;2023-09-18T02:08:53;100078.56;;;29.38;51.92
64544;BME280;50936;51.660;5.616;2023-09-18T02:11:45;100076.84;;;29.37;51.96
64544;BME280;50936;51.660;5.616;2023-09-18T02:14:33;100077.69;;;29.37;51.88
64544;BME280;50936;51.660;5.616;2023-09-18T02:17:21;100074.06;;;29.37;52.03
64544;BME280;50936;51.660;5.616;2023-09-18T02:20:08;100065.72;;;29.37;52.35
64544;BME280;50936;51.660;5.616;2023-09-18T02:22:59;100062.94;;;29.37;52.43
64544;BME280;50936;51.660;5.616;2023-09-18T02:25:46;100054.59;;;29.37;52.02
64544;BME280;50936;51.660;5.616;2023-09-18T02:28:34;100036.22;;;29.36;52.08
64544;BME280;50936;51.660;5.616;2023-09-18T02:31:21;100045.66;;;29.35;52.35
64544;BME280;50936;51.660;5.616;2023-09-18T02:34:09;100038.75;;;29.37;51.92
64544;BME280;50936;51.660;5.616;2023-09-18T02:36:57;100040.44;;;29.39;52.28
64544;BME280;50936;51.660;5.616;2023-09-18T02:39:45;100035.13;;;29.37;51.97
64544;BME280;50936;51.660;5.616;2023-09-18T02:42:32;100032.34;;;29.37;52.21
64544;BME280;50936;51.660;5.616;2023-09-18T02:45:19;100024.00;;;29.37;52.23
64544;BME280;50936;51.660;5.616;2023-09-18T02:48:06;100007.91;;;29.39;52.33
64544;BME280;50936;51.660;5.616;2023-09-18T02:50:54;99990.06;;;29.35;52.01
64544;BME280;50936;51.660;5.616;2023-09-18T02:53:41;99984.47;;;29.35;52.09
64544;BME280;50936;51.660;5.616;2023-09-18T02:56:28;99976.72;;;29.37;52.38
64544;BME280;50936;51.660;5.616;2023-09-18T02:59:15;99965.59;;;29.37;52.01
64544;BME280;50936;51.660;5.616;2023-09-18T03:02:03;99965.59;;;29.37;52.38
64544;BME280;50936;51.660;5.616;2023-09-18T03:04:51;99957.25;;;29.37;51.81
64544;BME280;50936;51.660;5.616;2023-09-18T03:07:38;99954.47;;;29.37;51.92
64544;BME280;50936;51.660;5.616;2023-09-18T03:10:26;99963.91;;;29.36;52.02
64544;BME280;50936;51.660;5.616;2023-09-18T03:13:14;99959.47;;;29.35;52.13
64544;BME280;50936;51.660;5.616;2023-09-18T03:16:02;99949.16;;;29.35;52.17
64544;BME280;50936;51.660;5.616;2023-09-18T03:18:49;99957.25;;;29.37;52.22
64544;BME280;50936;51.660;5.616;2023-09-18T03:21:37;99977.81;;;29.36;52.23
64544;BME280;50936;51.660;5.616;2023-09-18T03:24:25;99975.91;;;29.36;52.29
64544;BME280;50936;51.660;5.616;2023-09-18T03:27:12;99952.78;;;29.36;52.04
64544;BME280;50936;51.660;5.616;2023-09-18T03:30:00;99948.59;;;29.33;52.23
64544;BME280;50936;51.660;5.616;2023-09-18T03:32:47;99953.91;;;29.35;52.15
64544;BME280;50936;51.660;5.616;2023-09-18T03:35:46;99963.41;;;29.39;51.90
64544;BME280;50936;51.660;5.616;2023-09-18T03:38:36;99952.78;;;29.36;52.15
64544;BME280;50936;51.660;5.616;2023-09-18T03:41:25;99959.22;;;29.36;51.83
64544;BME280;50936;51.660;5.616;2023-09-18T03:44:12;99960.53;;;29.34;52.01
64544;BME280;50936;51.660;5.616;2023-09-18T03:46:59;99971.66;;;29.34;51.70
64544;BME280;50936;51.660;5.616;2023-09-18T03:49:47;99955.84;;;29.34;52.18
64544;BME280;50936;51.660;5.616;2023-09-18T03:52:35;99940.00;;;29.35;51.93
64544;BME280;50936;51.660;5.616;2023-09-18T03:55:23;99971.66;;;29.34;51.97
64544;BME280;50936;51.660;5.616;2023-09-18T03:58:10;99975.03;;;29.36;51.77
64544;BME280;50936;51.660;5.616;2023-09-18T04:00:57;99960.53;;;29.34;51.84
64544;BME280;50936;51.660;5.616;2023-09-18T04:03:45;99970.00;;;29.33;51.95
64544;BME280;50936;51.660;5.616;2023-09-18T04:06:44;99968.63;;;29.35;51.76
64544;BME280;50936;51.660;5.616;2023-09-18T04:09:33;99961.06;;;29.31;51.73
64544;BME280;50936;51.660;5.616;2023-09-18T04:12:23;99942.19;;;29.33;52.12
64544;BME280;50936;51.660;5.616;2023-09-18T04:15:10;99931.91;;;29.33;52.14
64544;BME280;50936;51.660;5.616;2023-09-18T04:17:58;99945.56;;;29.35;51.94
64544;BME280;50936;51.660;5.616;2023-09-18T04:20:46;99957.16;;;29.32;51.74
64544;BME280;50936;51.660;5.616;2023-09-18T04:23:33;99956.44;;;29.36;51.58
64544;BME280;50936;51.660;5.616;2023-09-18T04:26:21;99963.31;;;29.34;52.03
64544;BME280;50936;51.660;5.616;2023-09-18T04:29:10;99965.50;;;29.32;51.77
64544;BME280;50936;51.660;5.616;2023-09-18T04:31:57;99954.97;;;29.34;51.59
64544;BME280;50936;51.660;5.616;2023-09-18T04:34:46;99955.50;;;29.31;52.10
64544;BME280;50936;51.660;5.616;2023-09-18T04:37:36;99952.72;;;29.31;51.80
64544;BME280;50936;51.660;5.616;2023-09-18T04:40:26;99943.25;;;29.32;51.67
64544;BME280;50936;51.660;5.616;2023-09-18T04:43:18;99934.09;;;29.31;52.05
64544;BME280;50936;51.660;5.616;2023-09-18T04:46:06;99921.25;;;29.30;51.93
64544;BME280;50936;51.660;5.616;2023-09-18T04:48:54;99921.25;;;29.30;52.11
64544;BME280;50936;51.660;5.616;2023-09-18T04:51:41;99917.91;;;29.28;52.21
64544;BME280;50936;51.660;5.616;2023-09-18T04:54:29;99896.50;;;29.29;52.16
64544;BME280;50936;51.660;5.616;2023-09-18T04:57:16;99891.78;;;29.29;52.20
64544;BME280;50936;51.660;5.616;2023-09-18T05:00:06;99890.94;;;29.29;52.19
64544;BME280;50936;51.660;5.616;2023-09-18T05:03:04;99873.75;;;29.32;51.96
64544;BME280;50936;51.660;5.616;2023-09-18T05:05:52;99872.56;;;29.28;52.22
64544;BME280;50936;51.660;5.616;2023-09-18T05:08:39;99862.28;;;29.28;51.93
64544;BME280;50936;51.660;5.616;2023-09-18T05:11:27;99867.59;;;29.30;52.10
64544;BME280;50936;51.660;5.616;2023-09-18T05:14:14;99864.00;;;29.29;52.17
64544;BME280;50936;51.660;5.616;2023-09-18T05:17:03;99861.47;;;29.28;52.35
64544;BME280;50936;51.660;5.616;2023-09-18T05:19:50;99859.75;;;29.27;51.92
64544;BME280;50936;51.660;5.616;2023-09-18T05:22:37;99867.00;;;29.28;52.39
64544;BME280;50936;51.660;5.616;2023-09-18T05:25:26;99870.88;;;29.27;52.00
64544;BME280;50936;51.660;5.616;2023-09-18T05:28:20;99879.22;;;29.27;51.96
64544;BME280;50936;51.660;5.616;2023-09-18T05:31:09;99883.94;;;29.26;52.44
64544;BME280;50936;51.660;5.616;2023-09-18T05:33:56;99892.28;;;29.26;52.31
64544;BME280;50936;51.660;5.616;2023-09-18T05:36:47;99894.81;;;29.28;52.07
64544;BME280;50936;51.660;5.616;2023-09-18T05:39:34;99900.88;;;29.25;52.35
64544;BME280;50936;51.660;5.616;2023-09-18T05:42:21;99906.44;;;29.25;52.76
64544;BME280;50936;51.660;5.616;2023-09-18T05:45:10;99909.22;;;29.25;52.95
64544;BME280;50936;51.660;5.616;2023-09-18T05:47:58;99904.69;;;29.18;52.60
64544;BME280;50936;51.660;5.616;2023-09-18T05:50:51;99912.44;;;29.16;53.13
64544;BME280;50936;51.660;5.616;2023-09-18T05:53:39;99912.44;;;29.16;52.73
64544;BME280;50936;51.660;5.616;2023-09-18T05:56:27;99921.03;;;29.15;52.68
64544;BME280;50936;51.660;5.616;2023-09-18T05:59:14;99931.31;;;29.14;52.77
64544;BME280;50936;51.660;5.616;2023-09-18T06:02:03;99923.19;;;29.13;52.83
64544;BME280;50936;51.660;5.616;2023-09-18T06:04:58;99916.53;;;29.14;52.74
64544;BME280;50936;51.660;5.616;2023-09-18T06:07:53;99920.91;;;29.10;53.03
64544;BME280;50936;51.660;5.616;2023-09-18T06:10:40;99932.84;;;29.10;52.65
64544;BME280;50936;51.660;5.616;2023-09-18T06:13:27;99925.97;;;29.13;53.08
64544;BME280;50936;51.660;5.616;2023-09-18T06:16:15;99962.34;;;29.11;53.12
64544;BME280;50936;51.660;5.616;2023-09-18T06:19:02;99956.78;;;29.11;52.78
64544;BME280;50936;51.660;5.616;2023-09-18T06:21:50;99965.72;;;29.13;53.02
64544;BME280;50936;51.660;5.616;2023-09-18T06:24:37;99967.19;;;29.16;52.93
64544;BME280;50936;51.660;5.616;2023-09-18T06:27:24;99953.56;;;29.14;52.90
64544;BME280;50936;51.660;5.616;2023-09-18T06:30:12;99955.47;;;29.14;52.80
64544;BME280;50936;51.660;5.616;2023-09-18T06:33:00;99949.03;;;29.13;52.48
64544;BME280;50936;51.660;5.616;2023-09-18T06:35:48;99967.19;;;29.16;52.94
64544;BME280;50936;51.660;5.616;2023-09-18T06:38:35;99964.41;;;29.16;52.69
64544;BME280;50936;51.660;5.616;2023-09-18T06:41:23;99961.91;;;29.14;52.54
64544;BME280;50936;51.660;5.616;2023-09-18T06:44:10;99950.78;;;29.14;52.47
64544;BME280;50936;51.660;5.616;2023-09-18T06:46:57;99966.94;;;29.17;52.71
64544;BME280;50936;51.660;5.616;2023-09-18T06:49:44;99984.13;;;29.14;52.29
64544;BME280;50936;51.660;5.616;2023-09-18T06:52:32;99991.59;;;29.14;52.33
64544;BME280;50936;51.660;5.616;2023-09-18T06:55:19;99987.97;;;29.13;52.22
64544;BME280;50936;51.660;5.616;2023-09-18T06:58:06;99989.69;;;29.14;52.54
64544;BME280;50936;51.660;5.616;2023-09-18T07:00:53;99987.97;;;29.13;52.21
64544;BME280;50936;51.660;5.616;2023-09-18T07:03:41;99993.75;;;29.12;52.50
64544;BME280;50936;51.660;5.616;2023-09-18T07:06:28;99987.97;;;29.13;52.75
64544;BME280;50936;51.660;5.616;2023-09-18T07:09:15;99990.97;;;29.12;52.70
64544;BME280;50936;51.660;5.616;2023-09-18T07:12:05;99987.97;;;29.13;52.24
64544;BME280;50936;51.660;5.616;2023-09-18T07:14:52;99991.59;;;29.14;52.60
64544;BME280;50936;51.660;5.616;2023-09-18T07:17:40;99981.81;;;29.11;52.81
64544;BME280;50936;51.660;5.616;2023-09-18T07:20:27;99984.59;;;29.11;52.26
64544;BME280;50936;51.660;5.616;2023-09-18T07:23:14;99991.22;;;29.10;52.41
64544;BME280;50936;51.660;5.616;2023-09-18T07:26:02;99988.97;;;29.07;52.15
64544;BME280;50936;51.660;5.616;2023-09-18T07:28:49;99985.94;;;29.09;52.40
64544;BME280;50936;51.660;5.616;2023-09-18T07:31:36;99995.97;;;29.10;52.62
64544;BME280;50936;51.660;5.616;2023-09-18T07:34:24;100000.09;;;29.07;52.29
64544;BME280;50936;51.660;5.616;2023-09-18T07:37:12;100009.84;;;29.10;52.63
64544;BME280;50936;51.660;5.616;2023-09-18T07:39:59;100003.47;;;29.09;52.59
64544;BME280;50936;51.660;5.616;2023-09-18T07:42:46;100015.16;;;29.11;52.56
64544;BME280;50936;51.660;5.616;2023-09-18T07:45:34;100008.50;;;29.12;52.60
64544;BME280;50936;51.660;5.616;2023-09-18T07:48:24;99999.09;;;29.13;52.14
64544;BME280;50936;51.660;5.616;2023-09-18T07:51:12;100004.63;;;29.13;52.61
64544;BME280;50936;51.660;5.616;2023-09-18T07:54:01;100001.66;;;29.15;52.20
64544;BME280;50936;51.660;5.616;2023-09-18T07:56:48;100006.09;;;29.16;52.21
64544;BME280;50936;51.660;5.616;2023-09-18T07:59:36;100020.34;;;29.20;52.20
64544;BME280;50936;51.660;5.616;2023-09-18T08:02:24;100009.22;;;29.20;52.37
64544;BME280;50936;51.660;5.616;2023-09-18T08:05:12;100009.22;;;29.20;52.43
64544;BME280;50936;51.660;5.616;2023-09-18T08:08:00;100016.47;;;29.21;51.91
64544;BME280;50936;51.660;5.616;2023-09-18T08:10:47;100010.91;;;29.21;52.36
64544;BME280;50936;51.660;5.616;2023-09-18T08:13:35;100010.09;;;29.20;52.17
64544;BME280;50936;51.660;5.616;2023-09-18T08:16:22;100005.38;;;29.21;52.42
64544;BME280;50936;51.660;5.616;2023-09-18T08:19:10;99998.97;;;29.20;52.42
64544;BME280;50936;51.660;5.616;2023-09-18T08:21:57;99998.19;;;29.25;52.01
64544;BME280;50936;51.660;5.616;2023-09-18T08:24:45;99996.53;;;29.24;51.88
64544;BME280;50936;51.660;5.616;2023-09-18T08:27:33;100010.16;;;29.25;51.89
64544;BME280;50936;51.660;5.616;2023-09-18T08:30:20;100026.00;;;29.25;51.78
64544;BME280;50936;51.660;5.616;2023-09-18T08:33:08;100034.34;;;29.25;52.17
64544;BME280;50936;51.660;5.616;2023-09-18T08:35:55;100029.63;;;29.25;52.19
64544;BME280;50936;51.660;5.616;2023-09-18T08:38:42;100041.84;;;29.24;51.77
64544;BME280;50936;51.660;5.616;2023-09-18T08:41:31;100052.72;;;29.26;52.06
64544;BME280;50936;51.660;5.616;2023-09-18T08:44:19;100046.31;;;29.25;51.99
64544;BME280;50936;51.660;5.616;2023-09-18T08:47:11;100056.09;;;29.28;52.02
64544;BME280;50936;51.660;5.616;2023-09-18T08:50:01;100051.03;;;29.25;51.50
64544;BME280;50936;51.660;5.616;2023-09-18T08:52:49;100050.53;;;29.28;51.68
64544;BME280;50936;51.660;5.616;2023-09-18T08:55:37;100059.47;;;29.30;51.33
64544;BME280;50936;51.660;5.616;2023-09-18T08:58:26;100045.81;;;29.28;51.81
64544;BME280;50936;51.660;5.616;2023-09-18T09:01:15;100045.56;;;29.30;51.32
64544;BME280;50936;51.660;5.616;2023-09-18T09:04:02;100042.19;;;29.28;51.71
64544;BME280;50936;51.660;5.616;2023-09-18T09:06:50;100051.13;;;29.30;51.38
64544;BME280;50936;51.660;5.616;2023-09-18T09:09:38;100052.22;;;29.29;51.31
64544;BME280;50936;51.660;5.616;2023-09-18T09:15:46;100042.63;;;29.36;51.14
64544;BME280;50936;51.660;5.616;2023-09-18T09:18:35;100038.06;;;29.30;51.51
64544;BME280;50936;51.660;5.616;2023-09-18T09:21:41;100040.09;;;29.35;51.29
64544;BME280;50936;51.660;5.616;2023-09-18T09:27:26;100042.78;;;29.30;51.54
64544;BME280;50936;51.660;5.616;2023-09-18T09:30:21;100037.81;;;29.32;51.12
64544;BME280;50936;51.660;5.616;2023-09-18T09:33:12;100048.25;;;29.25;50.53
64544;BME280;50936;51.660;5.616;2023-09-18T09:35:59;100047.81;;;29.16;50.97
64544;BME280;50936;51.660;5.616;2023-09-18T09:38:46;100056.03;;;29.11;50.65
64544;BME280;50936;51.660;5.616;2023-09-18T09:41:34;100066.22;;;29.05;50.89
64544;BME280;50936;51.660;5.616;2023-09-18T09:44:22;100074.19;;;29.02;50.63
64544;BME280;50936;51.660;5.616;2023-09-18T09:47:10;100074.34;;;28.95;50.96
64544;BME280;50936;51.660;5.616;2023-09-18T09:50:06;100074.94;;;28.97;50.95
64544;BME280;50936;51.660;5.616;2023-09-18T09:52:56;100076.53;;;28.93;50.97
64544;BME280;50936;51.660;5.616;2023-09-18T09:55:44;100067.25;;;28.87;51.08
64544;BME280;50936;51.660;5.616;2023-09-18T09:58:31;100075.81;;;28.86;50.95
64544;BME280;50936;51.660;5.616;2023-09-18T10:01:18;100066.06;;;28.83;51.19
64544;BME280;50936;51.660;5.616;2023-09-18T10:04:11;100066.88;;;28.84;51.02
64544;BME280;50936;51.660;5.616;2023-09-18T10:07:07;100069.41;;;28.85;51.09
64544;BME280;50936;51.660;5.616;2023-09-18T10:09:56;100086.34;;;28.84;50.63
64544;BME280;50936;51.660;5.616;2023-09-18T10:12:45;100093.47;;;28.79;50.78
64544;BME280;50936;51.660;5.616;2023-09-18T10:15:37;100098.16;;;28.79;50.60
64544;BME280;50936;51.660;5.616;2023-09-18T10:18:28;100110.16;;;28.79;50.71
64544;BME280;50936;51.660;5.616;2023-09-18T10:24:24;100109.06;;;28.80;50.91
64544;BME280;50936;51.660;5.616;2023-09-18T10:27:13;100130.81;;;28.84;51.04
64544;BME280;50936;51.660;5.616;2023-09-18T10:30:01;100113.03;;;28.85;51.04
64544;BME280;50936;51.660;5.616;2023-09-18T10:32:52;100117.84;;;28.89;51.02
64544;BME280;50936;51.660;5.616;2023-09-18T10:35:41;100105.63;;;28.90;50.63
64544;BME280;50936;51.660;5.616;2023-09-18T10:38:30;100096.56;;;28.95;51.00
64544;BME280;50936;51.660;5.616;2023-09-18T10:41:20;100091.00;;;28.95;50.95
64544;BME280;50936;51.660;5.616;2023-09-18T10:44:11;100095.56;;;29.01;50.65
64544;BME280;50936;51.660;5.616;2023-09-18T10:47:00;100104.50;;;29.03;50.75
64544;BME280;50936;51.660;5.616;2023-09-18T10:49:49;100105.72;;;29.07;50.58
64544;BME280;50936;51.660;5.616;2023-09-18T10:52:43;100108.84;;;29.11;50.33
64544;BME280;50936;51.660;5.616;2023-09-18T10:55:34;100084.06;;;29.09;50.65
64544;BME280;50936;51.660;5.616;2023-09-18T10:58:24;100087.84;;;29.15;50.61
64544;BME280;50936;51.660;5.616;2023-09-18T11:01:12;100085.88;;;29.15;50.54
64544;BME280;50936;51.660;5.616;2023-09-18T11:04:01;100069.78;;;29.17;50.56
64544;BME280;50936;51.660;5.616;2023-09-18T11:09:43;100073.44;;;29.18;50.36
64544;BME280;50936;51.660;5.616;2023-09-18T11:12:44;100090.78;;;29.25;50.32
64544;BME280;50936;51.660;5.616;2023-09-18T11:15:32;100091.06;;;29.24;49.98
64544;BME280;50936;51.660;5.616;2023-09-18T11:18:19;100096.03;;;29.22;50.31
64544;BME280;50936;51.660;5.616;2023-09-18T11:21:10;100091.78;;;29.19;50.13
64544;BME280;50936;51.660;5.616;2023-09-18T11:26:53;100093.84;;;29.24;49.94
64544;BME280;50936;51.660;5.616;2023-09-18T11:29:41;100095.53;;;29.25;50.12
64544;BME280;50936;51.660;5.616;2023-09-18T11:32:38;100102.25;;;29.29;49.95
64544;BME280;50936;51.660;5.616;2023-09-18T11:35:29;100098.91;;;29.27;49.84
64544;BME280;50936;51.660;5.616;2023-09-18T11:38:16;100095.53;;;29.25;49.70
64544;BME280;50936;51.660;5.616;2023-09-18T11:41:21;100093.19;;;29.33;49.86
64544;BME280;50936;51.660;5.616;2023-09-18T11:47:07;100098.41;;;29.30;49.74
64544;BME280;50936;51.660;5.616;2023-09-18T11:50:10;100091.13;;;29.29;50.03
64544;BME280;50936;51.660;5.616;2023-09-18T11:52:58;100098.91;;;29.27;49.93
64544;BME280;50936;51.660;5.616;2023-09-18T11:55:46;100097.31;;;29.31;49.90
64544;BME280;50936;51.660;5.616;2023-09-18T11:58:45;100089.34;;;29.34;49.59
64544;BME280;50936;51.660;5.616;2023-09-18T12:01:33;100085.59;;;29.29;49.62
64544;BME280;50936;51.660;5.616;2023-09-18T12:04:29;100085.69;;;29.34;49.54
64544;BME280;50936;51.660;5.616;2023-09-18T12:07:16;100078.69;;;29.31;49.63
64544;BME280;50936;51.660;5.616;2023-09-18T12:10:07;100073.97;;;29.32;49.55
64544;BME280;50936;51.660;5.616;2023-09-18T12:12:57;100075.66;;;29.33;49.78
64544;BME280;50936;51.660;5.616;2023-09-18T12:15:45;100070.09;;;29.33;49.78
64544;BME280;50936;51.660;5.616;2023-09-18T12:18:33;100068.75;;;29.35;49.77
64544;BME280;50936;51.660;5.616;2023-09-18T12:21:25;100079.38;;;29.39;49.78
64544;BME280;50936;51.660;5.616;2023-09-18T12:24:25;100076.34;;;29.40;49.29
64544;BME280;50936;51.660;5.616;2023-09-18T12:27:13;100064.66;;;29.38;49.17
64544;BME280;50936;51.660;5.616;2023-09-18T12:30:00;100075.25;;;29.41;49.63
64544;BME280;50936;51.660;5.616;2023-09-18T12:32:47;100069.69;;;29.41;49.26
64544;BME280;50936;51.660;5.616;2023-09-18T12:35:36;100062.19;;;29.42;49.41
64544;BME280;50936;51.660;5.616;2023-09-18T12:38:24;100074.75;;;29.44;49.58
64544;BME280;50936;51.660;5.616;2023-09-18T12:41:14;100060.84;;;29.44;49.14
64544;BME280;50936;51.660;5.616;2023-09-18T12:44:01;100065.31;;;29.45;48.96
64544;BME280;50936;51.660;5.616;2023-09-18T12:46:50;100057.81;;;29.46;49.02
64544;BME280;50936;51.660;5.616;2023-09-18T12:49:39;100063.72;;;29.49;48.87
64544;BME280;50936;51.660;5.616;2023-09-18T12:52:26;100050.91;;;29.48;49.21
64544;BME280;50936;51.660;5.616;2023-09-18T12:55:26;100045.44;;;29.53;49.02
64544;BME280;50936;51.660;5.616;2023-09-18T12:58:21;100065.75;;;29.54;48.57
64544;BME280;50936;51.660;5.616;2023-09-18T13:01:10;100046.88;;;29.73;48.77
64544;BME280;50936;51.660;5.616;2023-09-18T13:03:58;100041.03;;;29.58;48.90
64544;BME280;50936;51.660;5.616;2023-09-18T13:07:12;100034.41;;;29.59;48.28
64544;BME280;50936;51.660;5.616;2023-09-18T13:10:02;100036.25;;;29.53;48.24
64544;BME280;50936;51.660;5.616;2023-09-18T13:12:53;100026.47;;;29.50;48.25
64544;BME280;50936;51.660;5.616;2023-09-18T13:15:42;100009.19;;;29.48;48.33
64544;BME280;50936;51.660;5.616;2023-09-18T13:18:33;100009.78;;;29.50;48.68
64544;BME280;50936;51.660;5.616;2023-09-18T13:21:20;100009.53;;;29.52;48.52
64544;BME280;50936;51.660;5.616;2023-09-18T13:24:24;99993.75;;;29.58;47.96
64544;BME280;50936;51.660;5.616;2023-09-18T13:27:12;99999.81;;;29.54;48.50
64544;BME280;50936;51.660;5.616;2023-09-18T13:29:59;99992.59;;;29.53;48.52
64544;BME280;50936;51.660;5.616;2023-09-18T13:33:05;99986.00;;;29.60;47.95
64544;BME280;50936;51.660;5.616;2023-09-18T13:35:58;99979.25;;;29.55;48.21
64544;BME280;50936;51.660;5.616;2023-09-18T13:38:46;99987.59;;;29.55;47.92
64544;BME280;50936;51.660;5.616;2023-09-18T13:41:33;99987.09;;;29.59;48.03
64544;BME280;50936;51.660;5.616;2023-09-18T13:44:20;99980.97;;;29.56;48.27
64544;BME280;50936;51.660;5.616;2023-09-18T13:47:08;99981.78;;;29.57;48.24
64544;BME280;50936;51.660;5.616;2023-09-18T13:49:56;99991.56;;;29.60;47.78
64544;BME280;50936;51.660;5.616;2023-09-18T13:52:47;99982.13;;;29.61;47.78
64544;BME280;50936;51.660;5.616;2023-09-18T13:55:34;99984.91;;;29.61;47.82
64544;BME280;50936;51.660;5.616;2023-09-18T13:58:22;99974.88;;;29.60;48.00
64544;BME280;50936;51.660;5.616;2023-09-18T14:01:09;99984.31;;;29.59;47.61
64544;BME280;50936;51.660;5.616;2023-09-18T14:03:58;99963.75;;;29.60;47.96
64544;BME280;50936;51.660;5.616;2023-09-18T14:06:45;99966.28;;;29.61;47.82
64544;BME280;50936;51.660;5.616;2023-09-18T14:09:32;99963.25;;;29.63;47.39
64544;BME280;50936;51.660;5.616;2023-09-18T14:12:19;99955.16;;;29.61;47.36
64544;BME280;50936;51.660;5.616;2023-09-18T14:15:07;99957.69;;;29.63;47.72
64544;BME280;50936;51.660;5.616;2023-09-18T14:17:55;99951.03;;;29.64;47.53
64544;BME280;50936;51.660;5.616;2023-09-18T14:20:43;99942.69;;;29.64;47.19
64544;BME280;50936;51.660;5.616;2023-09-18T14:23:31;99947.13;;;29.65;47.66
64544;BME280;50936;51.660;5.616;2023-09-18T14:26:21;99937.94;;;29.64;47.19
64544;BME280;50936;51.660;5.616;2023-09-18T14:29:10;99933.22;;;29.65;47.53
64544;BME280;50936;51.660;5.616;2023-09-18T14:31:58;99926.00;;;29.64;47.15
64544;BME280;50936;51.660;5.616;2023-09-18T14:34:45;99932.13;;;29.66;47.34
64544;BME280;50936;51.660;5.616;2023-09-18T14:37:32;99921.25;;;29.64;46.91
64544;BME280;50936;51.660;5.616;2023-09-18T14:40:19;99910.97;;;29.65;47.29
64544;BME280;50936;51.660;5.616;2023-09-18T14:43:08;99918.22;;;29.66;47.01
64544;BME280;50936;51.660;5.616;2023-09-18T14:45:55;99927.66;;;29.65;47.27
64544;BME280;50936;51.660;5.616;2023-09-18T14:48:44;99930.44;;;29.65;47.31
64544;BME280;50936;51.660;5.616;2023-09-18T14:51:31;99927.66;;;29.65;47.29
64544;BME280;50936;51.660;5.616;2023-09-18T14:54:20;99922.09;;;29.65;46.66
64544;BME280;50936;51.660;5.616;2023-09-18T14:57:08;99933.22;;;29.65;47.01
64544;BME280;50936;51.660;5.616;2023-09-18T14:59:55;99927.66;;;29.65;46.95
64544;BME280;50936;51.660;5.616;2023-09-18T15:02:42;99933.22;;;29.65;46.87
64544;BME280;50936;51.660;5.616;2023-09-18T15:05:29;99923.78;;;29.66;46.42
64544;BME280;50936;51.660;5.616;2023-09-18T15:08:17;99927.91;;;29.63;46.45
64544;BME280;50936;51.660;5.616;2023-09-18T15:11:11;99921.59;;;29.68;46.80